Time;durP1;ratioP1;P1;durP2;ratioP2;P2;SDS_P1;SDS_P2;PMS_P1;PMS_P2;Temp;Humidity;BMP_temperature;BMP_pressure;BME280_temperature;BME280_humidity;BME280_pressure;Samples;Min_cycle;Max_cycle;Signal;HPM_P1;HPM_P2
2023/05/02 00:01:56;;;;;;;7.47;4.15;;;;;;;;;;5079491;28;20048;-73
2023/05/02 00:04:23;;;;;;;8.43;3.92;;;;;;;;;;5075262;28;20051;-73
2023/05/02 00:06:50;;;;;;;6.00;3.75;;;;;;;;;;5075094;28;20128;-73
2023/05/02 00:09:16;;;;;;;6.13;3.83;;;;;;;;;;5075519;28;20159;-73
2023/05/02 00:11:43;;;;;;;10.88;3.65;;;;;;;;;;5057190;28;20053;-73
2023/05/02 00:14:09;;;;;;;7.72;3.25;;;;;;;;;;5075572;28;20123;-73
2023/05/02 00:16:35;;;;;;;7.97;3.60;;;;;;;;;;5087693;28;20048;-73
2023/05/02 00:19:02;;;;;;;10.35;3.45;;;;;;;;;;5094832;28;20036;-73
2023/05/02 00:21:28;;;;;;;7.55;3.65;;;;;;;;;;5095862;28;20421;-73
2023/05/02 00:23:58;;;;;;;5.90;3.72;;;;;;;;;;5095329;28;20051;-73
2023/05/02 00:26:24;;;;;;;13.57;4.70;;;;;;;;;;5063281;28;20459;-73
2023/05/02 00:28:50;;;;;;;13.70;5.07;;;;;;;;;;5077230;28;20048;-73
2023/05/02 00:31:16;;;;;;;19.95;6.40;;;;;;;;;;5060161;28;20127;-73
2023/05/02 00:33:42;;;;;;;15.35;5.85;;;;;;;;;;5079808;28;20062;-73
2023/05/02 00:36:18;;;;;;;19.30;6.25;;;;;;;;;;5074446;28;20131;-73
2023/05/02 00:38:44;;;;;;;18.60;6.28;;;;;;;;;;5061672;28;20043;-73
2023/05/02 00:41:10;;;;;;;16.02;5.38;;;;;;;;;;5095305;28;20115;-73
2023/05/02 00:43:38;;;;;;;15.25;5.03;;;;;;;;;;5094226;28;20040;-73
2023/05/02 00:46:04;;;;;;;11.90;4.72;;;;;;;;;;5087381;28;20182;-73
2023/05/02 00:48:31;;;;;;;15.35;5.05;;;;;;;;;;5094194;28;20040;-73
2023/05/02 00:50:58;;;;;;;16.75;5.68;;;;;;;;;;5081750;28;20052;-73
2023/05/02 00:53:24;;;;;;;13.75;5.30;;;;;;;;;;5074969;28;20071;-73
2023/05/02 00:55:50;;;;;;;22.55;5.85;;;;;;;;;;5071695;28;20054;-73
2023/05/02 00:58:18;;;;;;;13.75;4.85;;;;;;;;;;5058260;28;20046;-73
2023/05/02 01:00:44;;;;;;;13.93;4.43;;;;;;;;;;5084096;28;20091;-73
2023/05/02 01:03:15;;;;;;;16.70;4.60;;;;;;;;;;5074287;28;20048;-73
2023/05/02 01:05:47;;;;;;;18.55;4.30;;;;;;;;;;5074619;28;20413;-73
2023/05/02 01:08:18;;;;;;;15.82;4.93;;;;;;;;;;5093538;28;20156;-73
2023/05/02 01:11:03;;;;;;;14.02;5.85;;;;;;;;;;5089869;28;20036;-73
2023/05/02 01:13:32;;;;;;;10.98;4.18;;;;;;;;;;5094507;28;20474;-73
2023/05/02 01:16:00;;;;;;;14.45;4.30;;;;;;;;;;5084588;28;20044;-73
2023/05/02 01:18:29;;;;;;;14.00;5.03;;;;;;;;;;5091561;28;20054;-73
2023/05/02 01:20:57;;;;;;;15.35;5.60;;;;;;;;;;5073978;28;20509;-73
2023/05/02 01:23:43;;;;;;;18.45;6.03;;;;;;;;;;5064736;28;20044;-73
2023/05/02 01:26:15;;;;;;;24.17;6.32;;;;;;;;;;5075071;28;20044;-73
2023/05/02 01:28:53;;;;;;;18.90;5.63;;;;;;;;;;5070512;28;20044;-73
2023/05/02 01:31:19;;;;;;;15.50;5.70;;;;;;;;;;5078123;28;20075;-73
2023/05/02 01:33:46;;;;;;;13.40;5.38;;;;;;;;;;5075353;28;20091;-73
2023/05/02 01:36:13;;;;;;;18.75;6.65;;;;;;;;;;5083620;28;20119;-73
2023/05/02 01:38:40;;;;;;;17.65;6.72;;;;;;;;;;5073998;28;20051;-73
2023/05/02 01:41:06;;;;;;;22.95;7.03;;;;;;;;;;5084330;28;20097;-73
2023/05/02 01:43:34;;;;;;;14.65;5.72;;;;;;;;;;5073412;28;20048;-73
2023/05/02 01:46:03;;;;;;;31.77;7.15;;;;;;;;;;5087702;28;20066;-74
2023/05/02 01:48:30;;;;;;;26.38;6.22;;;;;;;;;;5076097;28;20056;-73
2023/05/02 01:50:57;;;;;;;16.75;5.82;;;;;;;;;;5085721;28;20099;-73
2023/05/02 01:53:26;;;;;;;18.48;5.80;;;;;;;;;;5076184;28;20041;-73
2023/05/02 01:55:52;;;;;;;17.42;5.55;;;;;;;;;;5072876;28;20044;-73
2023/05/02 01:58:18;;;;;;;15.02;4.75;;;;;;;;;;5077729;28;20040;-73
2023/05/02 02:00:45;;;;;;;13.93;4.90;;;;;;;;;;5066285;28;20115;-73
2023/05/02 02:03:11;;;;;;;17.08;5.43;;;;;;;;;;5073012;28;20044;-73
2023/05/02 02:05:39;;;;;;;15.80;5.03;;;;;;;;;;5076379;28;20086;-73
2023/05/02 02:08:05;;;;;;;13.20;4.70;;;;;;;;;;5073541;28;20049;-73
2023/05/02 02:10:35;;;;;;;16.83;5.05;;;;;;;;;;5073667;28;20044;-73
2023/05/02 02:13:06;;;;;;;14.38;5.60;;;;;;;;;;5073326;28;20111;-73
2023/05/02 02:15:35;;;;;;;15.73;4.47;;;;;;;;;;5080364;28;20044;-73
2023/05/02 02:18:04;;;;;;;12.15;4.05;;;;;;;;;;5072900;28;20044;-73
2023/05/02 02:20:31;;;;;;;12.77;4.28;;;;;;;;;;5080904;28;20040;-73
2023/05/02 02:22:58;;;;;;;14.43;4.80;;;;;;;;;;5084327;28;20068;-73
2023/05/02 02:25:25;;;;;;;9.93;4.43;;;;;;;;;;5086908;28;20112;-73
2023/05/02 02:27:51;;;;;;;11.20;3.85;;;;;;;;;;5073307;28;20041;-73
2023/05/02 02:30:17;;;;;;;14.82;4.35;;;;;;;;;;5073617;28;20049;-73
2023/05/02 02:32:44;;;;;;;13.07;4.90;;;;;;;;;;5069858;28;20545;-73
2023/05/02 02:35:10;;;;;;;13.85;5.03;;;;;;;;;;5080457;28;20040;-73
2023/05/02 02:37:42;;;;;;;9.38;3.47;;;;;;;;;;5075562;28;20378;-73
2023/05/02 02:40:12;;;;;;;9.60;3.75;;;;;;;;;;5055272;28;20053;-73
2023/05/02 02:42:41;;;;;;;11.82;3.75;;;;;;;;;;5054828;28;20045;-73
2023/05/02 02:45:10;;;;;;;12.95;3.65;;;;;;;;;;5072841;28;20049;-73
2023/05/02 02:47:41;;;;;;;9.38;3.40;;;;;;;;;;5087383;28;20518;-73
2023/05/02 02:50:22;;;;;;;11.43;3.40;;;;;;;;;;5092277;28;20501;-73
2023/05/02 02:52:48;;;;;;;8.20;3.45;;;;;;;;;;5090085;28;20056;-73
2023/05/02 02:55:29;;;;;;;10.50;3.30;;;;;;;;;;5072955;28;20045;-73
2023/05/02 02:57:58;;;;;;;8.23;3.55;;;;;;;;;;5089689;28;20119;-73
2023/05/02 03:00:26;;;;;;;9.38;3.15;;;;;;;;;;5073247;28;20037;-73
2023/05/02 03:02:53;;;;;;;9.00;3.22;;;;;;;;;;5081553;28;20070;-73
2023/05/02 03:05:20;;;;;;;10.50;3.60;;;;;;;;;;5079586;28;20398;-73
2023/05/02 03:07:47;;;;;;;12.45;3.40;;;;;;;;;;5073678;28;20452;-73
2023/05/02 03:10:13;;;;;;;7.47;3.20;;;;;;;;;;5082296;28;20048;-73
2023/05/02 03:12:39;;;;;;;14.63;4.30;;;;;;;;;;5101864;28;20036;-73
2023/05/02 03:15:23;;;;;;;16.25;3.92;;;;;;;;;;5076281;28;20048;-73
2023/05/02 03:17:49;;;;;;;9.00;2.75;;;;;;;;;;5076267;28;20029;-73
2023/05/02 03:20:15;;;;;;;7.90;2.83;;;;;;;;;;5085547;28;20455;-73
2023/05/02 03:22:41;;;;;;;8.38;3.08;;;;;;;;;;5081963;28;20040;-73
2023/05/02 03:25:07;;;;;;;4.57;2.50;;;;;;;;;;5085356;28;20070;-73
2023/05/02 03:27:33;;;;;;;8.65;2.85;;;;;;;;;;5091363;28;20689;-73
2023/05/02 03:30:00;;;;;;;8.07;2.53;;;;;;;;;;5068625;28;20043;-73
2023/05/02 03:32:26;;;;;;;7.40;2.60;;;;;;;;;;5096177;28;20052;-73
2023/05/02 03:34:57;;;;;;;8.65;2.35;;;;;;;;;;5078608;28;20044;-73
2023/05/02 03:37:23;;;;;;;6.57;2.78;;;;;;;;;;5075767;28;20171;-73
2023/05/02 03:39:49;;;;;;;8.77;3.00;;;;;;;;;;5076137;28;20177;-73
2023/05/02 03:42:15;;;;;;;8.73;2.80;;;;;;;;;;5078649;28;20080;-73
2023/05/02 03:44:41;;;;;;;7.43;2.90;;;;;;;;;;5078655;28;20049;-73
2023/05/02 03:47:07;;;;;;;9.00;2.90;;;;;;;;;;5086314;28;20190;-73
2023/05/02 03:49:36;;;;;;;10.35;3.17;;;;;;;;;;5082414;28;20045;-73
2023/05/02 03:52:02;;;;;;;7.60;2.35;;;;;;;;;;5058076;28;20489;-73
2023/05/02 03:54:32;;;;;;;5.32;2.45;;;;;;;;;;5057889;28;20124;-73
2023/05/02 03:56:58;;;;;;;5.95;2.45;;;;;;;;;;5075789;28;20036;-73
2023/05/02 03:59:24;;;;;;;5.45;2.50;;;;;;;;;;5088762;28;20040;-73
2023/05/02 04:01:51;;;;;;;6.72;2.63;;;;;;;;;;5075325;28;20131;-73
2023/05/02 04:04:17;;;;;;;6.72;3.03;;;;;;;;;;5075459;28;20048;-73
2023/05/02 04:06:43;;;;;;;7.63;2.60;;;;;;;;;;5063469;28;20044;-73
2023/05/02 04:09:09;;;;;;;6.78;2.80;;;;;;;;;;5100457;28;20499;-73
2023/05/02 04:11:35;;;;;;;8.80;2.67;;;;;;;;;;5075575;28;20114;-73
2023/05/02 04:14:01;;;;;;;9.57;3.58;;;;;;;;;;5083776;28;20122;-73
2023/05/02 04:16:27;;;;;;;8.82;3.10;;;;;;;;;;5059902;28;20043;-73
2023/05/02 04:18:53;;;;;;;7.18;3.22;;;;;;;;;;5095324;28;20073;-73
2023/05/02 04:21:19;;;;;;;9.52;3.65;;;;;;;;;;5095763;28;20087;-73
2023/05/02 04:23:45;;;;;;;8.40;2.92;;;;;;;;;;5076322;28;20072;-73
2023/05/02 04:26:11;;;;;;;13.35;3.85;;;;;;;;;;5074793;28;20051;-73
2023/05/02 04:28:37;;;;;;;9.40;3.33;;;;;;;;;;5082481;28;20043;-73
2023/05/02 04:31:03;;;;;;;7.72;3.08;;;;;;;;;;5084400;28;20043;-72
2023/05/02 04:33:30;;;;;;;12.90;3.42;;;;;;;;;;5095166;28;20036;-73
2023/05/02 04:35:56;;;;;;;6.32;2.97;;;;;;;;;;5065207;28;20482;-73
2023/05/02 04:38:22;;;;;;;8.88;2.97;;;;;;;;;;5058521;28;20046;-72
2023/05/02 04:40:51;;;;;;;8.90;3.92;;;;;;;;;;5097184;28;20040;-72
2023/05/02 04:43:17;;;;;;;6.18;2.95;;;;;;;;;;5098621;28;20071;-73
2023/05/02 04:45:43;;;;;;;5.05;3.00;;;;;;;;;;5095863;28;20418;-73
2023/05/02 04:48:09;;;;;;;7.68;3.28;;;;;;;;;;5065918;28;20078;-73
2023/05/02 04:50:35;;;;;;;6.13;3.08;;;;;;;;;;5088769;28;20067;-74
2023/05/02 04:53:01;;;;;;;8.57;3.50;;;;;;;;;;5086021;28;20512;-73
2023/05/02 04:55:27;;;;;;;10.90;3.10;;;;;;;;;;5080748;28;20055;-73
2023/05/02 04:57:53;;;;;;;10.88;3.50;;;;;;;;;;5067938;28;20123;-73
2023/05/02 05:00:20;;;;;;;10.68;3.30;;;;;;;;;;5076137;28;20048;-73
2023/05/02 05:02:46;;;;;;;7.53;2.90;;;;;;;;;;5061895;28;20079;-73
2023/05/02 05:05:12;;;;;;;7.63;3.13;;;;;;;;;;5084138;28;20359;-73
2023/05/02 05:07:38;;;;;;;7.63;2.97;;;;;;;;;;5083111;28;20177;-73
2023/05/02 05:10:05;;;;;;;6.18;2.85;;;;;;;;;;5074928;28;20101;-73
2023/05/02 05:12:31;;;;;;;6.03;3.00;;;;;;;;;;5083798;28;20541;-73
2023/05/02 05:14:57;;;;;;;8.75;3.08;;;;;;;;;;5094395;28;20440;-73
2023/05/02 05:17:23;;;;;;;8.95;3.30;;;;;;;;;;5093581;28;20066;-73
2023/05/02 05:19:49;;;;;;;10.27;3.00;;;;;;;;;;5094189;28;20401;-73
2023/05/02 05:22:15;;;;;;;8.18;3.67;;;;;;;;;;5093071;28;20486;-73
2023/05/02 05:24:41;;;;;;;8.25;3.17;;;;;;;;;;5046439;28;20046;-73
2023/05/02 05:27:08;;;;;;;7.25;3.72;;;;;;;;;;5083107;28;20056;-73
2023/05/02 05:29:34;;;;;;;9.63;3.70;;;;;;;;;;5073936;28;20431;-73
2023/05/02 05:32:01;;;;;;;7.50;3.50;;;;;;;;;;5062987;28;20363;-73
2023/05/02 05:34:27;;;;;;;8.32;3.40;;;;;;;;;;5093881;28;20044;-73
2023/05/02 05:36:55;;;;;;;8.27;3.83;;;;;;;;;;5080508;28;20385;-73
2023/05/02 05:39:22;;;;;;;8.30;3.35;;;;;;;;;;5080753;28;20063;-73
2023/05/02 05:41:48;;;;;;;7.85;3.45;;;;;;;;;;5058100;28;20546;-73
2023/05/02 05:44:14;;;;;;;7.65;3.40;;;;;;;;;;5093555;28;20394;-73
2023/05/02 05:46:40;;;;;;;8.45;3.50;;;;;;;;;;5084568;28;20379;-73
2023/05/02 05:49:07;;;;;;;6.13;2.80;;;;;;;;;;5056933;28;20045;-73
2023/05/02 05:51:32;;;;;;;7.57;3.42;;;;;;;;;;5075651;28;20120;-73
2023/05/02 05:53:59;;;;;;;8.95;3.42;;;;;;;;;;5093642;28;20534;-73
2023/05/02 05:56:25;;;;;;;8.40;3.35;;;;;;;;;;5088452;28;20146;-73
2023/05/02 05:58:51;;;;;;;8.60;3.42;;;;;;;;;;5061103;28;20068;-73
2023/05/02 06:01:17;;;;;;;7.53;3.17;;;;;;;;;;5060756;28;20044;-73
2023/05/02 06:03:43;;;;;;;8.20;3.45;;;;;;;;;;5073682;28;20129;-73
2023/05/02 06:06:09;;;;;;;8.30;3.13;;;;;;;;;;5078841;28;20055;-73
2023/05/02 06:08:35;;;;;;;12.13;3.70;;;;;;;;;;5075638;28;20552;-73
2023/05/02 06:11:01;;;;;;;11.45;4.18;;;;;;;;;;5093451;28;20101;-73
2023/05/02 06:13:27;;;;;;;11.75;3.20;;;;;;;;;;5080993;28;20053;-73
2023/05/02 06:15:53;;;;;;;14.02;4.22;;;;;;;;;;5040680;28;20123;-73
2023/05/02 06:18:19;;;;;;;10.63;3.60;;;;;;;;;;5058662;28;20040;-73
2023/05/02 06:20:45;;;;;;;13.18;4.38;;;;;;;;;;5073246;28;20037;-73
2023/05/02 06:23:11;;;;;;;5.00;2.80;;;;;;;;;;5078315;28;20141;-72
2023/05/02 06:25:38;;;;;;;6.95;3.47;;;;;;;;;;5072967;28;20052;-74
2023/05/02 06:28:04;;;;;;;8.95;3.85;;;;;;;;;;5090932;28;20374;-74
2023/05/02 06:30:30;;;;;;;7.18;3.10;;;;;;;;;;5091281;28;20044;-74
2023/05/02 06:32:56;;;;;;;6.82;4.22;;;;;;;;;;5073389;28;20048;-73
2023/05/02 06:35:22;;;;;;;11.18;3.42;;;;;;;;;;5074106;28;20161;-73
2023/05/02 06:37:48;;;;;;;7.30;3.53;;;;;;;;;;5074672;28;20076;-73
2023/05/02 06:40:15;;;;;;;6.57;3.35;;;;;;;;;;5081766;28;20119;-73
2023/05/02 06:42:41;;;;;;;10.10;3.55;;;;;;;;;;5075383;28;20044;-73
2023/05/02 06:45:07;;;;;;;7.18;3.30;;;;;;;;;;5081382;28;20044;-74
2023/05/02 06:47:33;;;;;;;9.10;2.95;;;;;;;;;;5066043;28;20467;-74
2023/05/02 06:49:59;;;;;;;8.48;3.30;;;;;;;;;;5092836;28;20406;-74
2023/05/02 06:52:25;;;;;;;10.43;3.47;;;;;;;;;;5087063;28;20129;-74
2023/05/02 06:54:51;;;;;;;8.05;2.83;;;;;;;;;;5081303;28;20053;-74
2023/05/02 06:57:17;;;;;;;7.60;3.03;;;;;;;;;;5088011;28;20044;-74
2023/05/02 06:59:43;;;;;;;8.48;3.03;;;;;;;;;;5066694;28;20044;-74
2023/05/02 07:02:10;;;;;;;9.52;3.50;;;;;;;;;;5069980;28;20040;-74
2023/05/02 07:04:39;;;;;;;7.07;3.00;;;;;;;;;;5075165;28;20040;-74
2023/05/02 07:07:05;;;;;;;8.27;3.00;;;;;;;;;;5080815;28;20040;-74
2023/05/02 07:09:31;;;;;;;5.45;2.88;;;;;;;;;;5089666;28;20054;-74
2023/05/02 07:11:57;;;;;;;5.95;3.03;;;;;;;;;;5087621;28;20127;-74
2023/05/02 07:14:23;;;;;;;8.07;2.70;;;;;;;;;;5079892;28;20051;-74
2023/05/02 07:16:49;;;;;;;5.72;2.88;;;;;;;;;;5058329;28;20075;-74
2023/05/02 07:19:15;;;;;;;7.53;3.40;;;;;;;;;;5089695;28;20138;-74
2023/05/02 07:21:41;;;;;;;10.30;3.45;;;;;;;;;;5085291;28;20036;-74
2023/05/02 07:24:07;;;;;;;7.28;2.97;;;;;;;;;;5083492;28;20093;-74
2023/05/02 07:26:33;;;;;;;7.15;2.70;;;;;;;;;;5077905;28;20116;-74
2023/05/02 07:29:00;;;;;;;8.20;2.90;;;;;;;;;;5095155;28;20047;-74
2023/05/02 07:31:26;;;;;;;6.28;2.78;;;;;;;;;;5083468;28;20043;-74
2023/05/02 07:33:52;;;;;;;10.43;2.75;;;;;;;;;;5085300;28;20075;-74
2023/05/02 07:36:18;;;;;;;6.57;2.60;;;;;;;;;;5059620;28;20101;-74
2023/05/02 07:38:44;;;;;;;10.70;3.20;;;;;;;;;;5081398;28;20086;-74
2023/05/02 07:41:10;;;;;;;6.63;2.90;;;;;;;;;;5087056;28;20121;-74
2023/05/02 07:43:36;;;;;;;7.03;3.08;;;;;;;;;;5088740;28;20360;-74
2023/05/02 07:46:05;;;;;;;5.10;3.03;;;;;;;;;;5064570;28;20524;-74
2023/05/02 07:48:31;;;;;;;6.00;2.83;;;;;;;;;;5084153;28;20046;-73
2023/05/02 07:51:05;;;;;;;5.18;2.70;;;;;;;;;;5067614;28;20052;-72
2023/05/02 07:53:31;;;;;;;2.78;1.90;;;;;;;;;;5086426;28;20071;-73
2023/05/02 07:55:57;;;;;;;3.80;2.00;;;;;;;;;;5090743;28;20036;-72
2023/05/02 07:58:23;;;;;;;5.28;2.50;;;;;;;;;;5088198;28;20051;-72
2023/05/02 08:00:49;;;;;;;3.38;2.05;;;;;;;;;;5089631;28;20135;-73
2023/05/02 08:03:15;;;;;;;4.05;2.10;;;;;;;;;;5095658;28;20071;-73
2023/05/02 08:05:41;;;;;;;4.05;1.75;;;;;;;;;;5088485;28;20060;-73
2023/05/02 08:08:07;;;;;;;2.90;1.85;;;;;;;;;;5091803;28;20183;-73
2023/05/02 08:10:33;;;;;;;4.45;2.10;;;;;;;;;;5089695;28;20398;-73
2023/05/02 08:12:59;;;;;;;6.63;2.60;;;;;;;;;;5079991;28;20045;-73
2023/05/02 08:15:25;;;;;;;6.60;2.50;;;;;;;;;;5060289;28;20406;-73
2023/05/02 08:17:51;;;;;;;3.85;2.30;;;;;;;;;;5091073;28;20084;-73
2023/05/02 08:20:18;;;;;;;2.75;1.83;;;;;;;;;;5090209;28;20055;-73
2023/05/02 08:22:44;;;;;;;4.80;1.90;;;;;;;;;;5090393;28;20049;-74
2023/05/02 08:25:10;;;;;;;7.28;2.15;;;;;;;;;;5085461;28;20040;-73
2023/05/02 08:27:36;;;;;;;4.47;1.90;;;;;;;;;;5080381;28;20393;-73
2023/05/02 08:30:02;;;;;;;3.08;1.92;;;;;;;;;;5084897;28;20546;-73
2023/05/02 08:32:28;;;;;;;2.63;2.05;;;;;;;;;;5093412;28;20047;-72
2023/05/02 08:34:55;;;;;;;3.22;2.10;;;;;;;;;;5077834;28;20111;-73
2023/05/02 08:37:22;;;;;;;4.05;2.15;;;;;;;;;;5074670;28;20044;-73
2023/05/02 08:39:48;;;;;;;4.53;2.00;;;;;;;;;;5089009;28;20044;-73
2023/05/02 08:42:14;;;;;;;6.55;1.98;;;;;;;;;;5061667;28;20041;-75
2023/05/02 08:44:40;;;;;;;5.05;2.03;;;;;;;;;;5066967;28;20044;-76
2023/05/02 08:47:07;;;;;;;4.50;1.80;;;;;;;;;;5057850;28;20048;-73
2023/05/02 08:49:35;;;;;;;4.90;1.90;;;;;;;;;;5080127;28;20402;-73
2023/05/02 08:52:01;;;;;;;4.03;2.10;;;;;;;;;;5094753;28;20079;-73
2023/05/02 08:54:27;;;;;;;5.80;1.80;;;;;;;;;;5085691;28;20043;-74
2023/05/02 08:56:53;;;;;;;4.38;2.30;;;;;;;;;;5051741;28;20135;-73
2023/05/02 08:59:20;;;;;;;4.18;1.98;;;;;;;;;;5081814;28;20036;-74
2023/05/02 09:01:52;;;;;;;5.60;2.20;;;;;;;;;;5068348;28;20041;-74
2023/05/02 09:04:20;;;;;;;4.88;1.90;;;;;;;;;;5093776;28;20398;-73
2023/05/02 09:06:46;;;;;;;4.93;1.85;;;;;;;;;;5045248;28;20049;-73
2023/05/02 09:09:13;;;;;;;4.32;2.30;;;;;;;;;;5092892;28;20360;-73
2023/05/02 09:11:39;;;;;;;6.47;2.00;;;;;;;;;;5094917;28;20059;-73
2023/05/02 09:14:14;;;;;;;4.32;2.20;;;;;;;;;;5093344;28;20089;-73
2023/05/02 09:16:40;;;;;;;3.50;2.33;;;;;;;;;;5091860;28;20060;-73
2023/05/02 09:19:06;;;;;;;4.90;2.00;;;;;;;;;;5090573;28;20036;-73
2023/05/02 09:21:36;;;;;;;4.85;1.95;;;;;;;;;;5074140;28;20058;-73
2023/05/02 09:24:03;;;;;;;4.50;2.00;;;;;;;;;;5082573;28;20474;-73
2023/05/02 09:26:31;;;;;;;6.43;2.30;;;;;;;;;;5089719;28;20123;-75
2023/05/02 09:28:58;;;;;;;7.22;1.85;;;;;;;;;;5084997;28;20087;-74
2023/05/02 09:31:25;;;;;;;6.88;2.13;;;;;;;;;;5084557;28;20078;-73
2023/05/02 09:33:54;;;;;;;5.00;2.10;;;;;;;;;;5085844;28;20119;-73
2023/05/02 09:36:21;;;;;;;5.00;2.25;;;;;;;;;;5092463;28;20043;-73
2023/05/02 09:38:48;;;;;;;4.13;2.17;;;;;;;;;;5077513;28;20482;-73
2023/05/02 09:41:14;;;;;;;3.97;2.13;;;;;;;;;;5087249;28;20040;-73
2023/05/02 09:43:41;;;;;;;2.97;1.70;;;;;;;;;;5050012;28;20040;-73
2023/05/02 09:46:10;;;;;;;5.32;1.90;;;;;;;;;;5060210;28;20493;-74
2023/05/02 09:48:55;;;;;;;2.85;1.65;;;;;;;;;;5079734;28;21902;-75
2023/05/02 09:51:21;;;;;;;4.95;2.20;;;;;;;;;;5084635;28;20060;-76
2023/05/02 09:53:48;;;;;;;5.75;2.53;;;;;;;;;;5087390;28;20048;-73
2023/05/02 09:56:14;;;;;;;5.90;2.50;;;;;;;;;;5090289;28;20036;-73
2023/05/02 09:58:40;;;;;;;5.07;2.38;;;;;;;;;;5088762;28;20082;-73
2023/05/02 10:01:06;;;;;;;5.25;2.63;;;;;;;;;;5084441;28;20519;-73
2023/05/02 10:03:36;;;;;;;6.13;2.30;;;;;;;;;;5089187;28;20489;-73
2023/05/02 10:06:02;;;;;;;5.43;2.47;;;;;;;;;;5077150;28;20098;-73
2023/05/02 10:08:28;;;;;;;3.55;1.95;;;;;;;;;;5071939;28;20055;-73
2023/05/02 10:10:56;;;;;;;4.07;1.95;;;;;;;;;;5091308;28;20054;-74
2023/05/02 10:13:23;;;;;;;5.25;2.00;;;;;;;;;;5091652;28;20483;-73
2023/05/02 10:15:54;;;;;;;4.90;2.10;;;;;;;;;;5082712;28;20105;-73
2023/05/02 10:18:27;;;;;;;5.45;2.00;;;;;;;;;;5078740;28;20036;-73
2023/05/02 10:21:01;;;;;;;4.20;2.03;;;;;;;;;;5068525;28;20044;-74
2023/05/02 10:23:27;;;;;;;4.20;2.50;;;;;;;;;;5090076;28;20037;-75
2023/05/02 10:25:54;;;;;;;4.43;2.38;;;;;;;;;;5064974;28;20041;-74
2023/05/02 10:28:20;;;;;;;5.22;2.30;;;;;;;;;;5065451;28;20503;-74
2023/05/02 10:30:47;;;;;;;14.05;2.67;;;;;;;;;;5091124;28;20043;-74
2023/05/02 10:33:13;;;;;;;3.70;1.90;;;;;;;;;;5070598;28;20047;-74
2023/05/02 10:35:43;;;;;;;2.50;1.95;;;;;;;;;;5084115;28;20076;-73
2023/05/02 10:38:10;;;;;;;3.05;1.80;;;;;;;;;;5097357;28;20063;-73
2023/05/02 10:40:36;;;;;;;4.22;1.98;;;;;;;;;;5095989;28;20058;-74
2023/05/02 10:43:03;;;;;;;3.22;1.98;;;;;;;;;;5095479;28;20047;-74
2023/05/02 10:45:36;;;;;;;5.65;2.35;;;;;;;;;;5067402;28;20402;-74
2023/05/02 10:48:13;;;;;;;3.72;2.13;;;;;;;;;;5074029;28;20386;-74
2023/05/02 10:50:46;;;;;;;4.00;1.85;;;;;;;;;;5093428;28;20036;-74
2023/05/02 10:53:25;;;;;;;2.97;2.20;;;;;;;;;;5092617;28;20098;-74
2023/05/02 10:56:09;;;;;;;5.13;2.17;;;;;;;;;;5072317;28;20036;-74
2023/05/02 10:58:36;;;;;;;4.38;1.92;;;;;;;;;;5092603;28;20115;-73
2023/05/02 11:01:22;;;;;;;4.43;2.28;;;;;;;;;;5087021;28;20048;-73
2023/05/02 11:04:07;;;;;;;8.05;2.22;;;;;;;;;;5106024;28;20052;-73
2023/05/02 11:06:34;;;;;;;3.88;1.80;;;;;;;;;;5058505;28;20052;-73
2023/05/02 11:09:17;;;;;;;6.00;2.00;;;;;;;;;;5096631;28;20055;-74
2023/05/02 11:11:51;;;;;;;4.53;2.10;;;;;;;;;;5076650;28;20070;-74
2023/05/02 11:14:28;;;;;;;3.95;1.73;;;;;;;;;;5088669;28;20142;-73
2023/05/02 11:17:00;;;;;;;5.53;1.90;;;;;;;;;;5065772;28;20040;-73
2023/05/02 11:19:26;;;;;;;3.47;1.70;;;;;;;;;;5073563;28;20044;-74
2023/05/02 11:21:53;;;;;;;2.53;1.92;;;;;;;;;;5090849;28;20040;-73
2023/05/02 11:24:38;;;;;;;8.63;2.22;;;;;;;;;;5084166;28;20045;-74
2023/05/02 11:27:23;;;;;;;3.67;1.42;;;;;;;;;;5061977;28;20078;-74
2023/05/02 11:29:53;;;;;;;2.58;1.50;;;;;;;;;;5075905;28;20123;-74
2023/05/02 11:32:20;;;;;;;4.18;1.88;;;;;;;;;;5089630;28;20393;-74
2023/05/02 11:34:46;;;;;;;3.95;1.60;;;;;;;;;;5093861;28;20040;-74
2023/05/02 11:37:16;;;;;;;3.60;1.65;;;;;;;;;;5085978;28;20040;-74
2023/05/02 11:39:42;;;;;;;4.53;1.80;;;;;;;;;;5078125;28;20097;-74
2023/05/02 11:42:08;;;;;;;2.28;1.65;;;;;;;;;;5096019;28;20050;-74
2023/05/02 11:44:52;;;;;;;2.90;1.50;;;;;;;;;;5096784;28;20374;-73
2023/05/02 11:47:18;;;;;;;2.78;1.50;;;;;;;;;;5095621;28;20059;-74
2023/05/02 11:49:44;;;;;;;5.35;1.80;;;;;;;;;;5081344;28;20043;-73
2023/05/02 11:52:10;;;;;;;1.83;1.55;;;;;;;;;;5070177;28;20105;-73
2023/05/02 11:54:36;;;;;;;4.13;1.80;;;;;;;;;;5096237;28;20089;-74
2023/05/02 11:57:02;;;;;;;2.83;1.90;;;;;;;;;;5095224;28;20043;-74
2023/05/02 11:59:28;;;;;;;2.58;1.65;;;;;;;;;;5096147;28;20044;-74
2023/05/02 12:01:54;;;;;;;3.20;1.73;;;;;;;;;;5070217;28;20044;-74
2023/05/02 12:04:22;;;;;;;4.45;1.90;;;;;;;;;;5075632;28;20490;-74
2023/05/02 12:06:55;;;;;;;4.18;1.75;;;;;;;;;;5094183;28;20064;-74
2023/05/02 12:09:21;;;;;;;5.72;1.80;;;;;;;;;;5066224;28;20033;-74
2023/05/02 12:11:53;;;;;;;4.75;1.60;;;;;;;;;;5095371;28;20171;-74
2023/05/02 12:14:27;;;;;;;5.70;1.60;;;;;;;;;;5077001;28;20445;-73
2023/05/02 12:16:54;;;;;;;6.13;1.88;;;;;;;;;;5092578;28;20052;-73
2023/05/02 12:19:20;;;;;;;3.53;1.60;;;;;;;;;;5077097;28;20526;-73
2023/05/02 12:21:47;;;;;;;4.50;1.90;;;;;;;;;;5092620;28;20040;-73
2023/05/02 12:24:14;;;;;;;3.55;1.83;;;;;;;;;;5095101;28;20069;-73
2023/05/02 12:26:40;;;;;;;4.10;1.60;;;;;;;;;;5091010;28;20037;-75
2023/05/02 12:29:07;;;;;;;2.85;1.50;;;;;;;;;;5095577;28;20105;-73
2023/05/02 12:31:33;;;;;;;2.67;1.48;;;;;;;;;;5089696;28;20050;-72
2023/05/02 12:34:00;;;;;;;2.60;1.40;;;;;;;;;;5091883;28;20443;-73
2023/05/02 12:36:27;;;;;;;3.08;1.60;;;;;;;;;;5080213;28;20040;-73
2023/05/02 12:39:01;;;;;;;1.65;1.30;;;;;;;;;;5083174;28;20036;-73
2023/05/02 12:41:34;;;;;;;2.50;1.30;;;;;;;;;;5085083;28;20044;-73
2023/05/02 12:44:00;;;;;;;1.83;1.48;;;;;;;;;;5063561;28;20123;-73
2023/05/02 12:46:30;;;;;;;2.28;1.30;;;;;;;;;;5085617;28;20040;-77
2023/05/02 12:49:02;;;;;;;5.35;1.50;;;;;;;;;;5076899;28;20117;-73
2023/05/02 12:51:30;;;;;;;3.80;1.67;;;;;;;;;;5091789;28;20048;-73
2023/05/02 12:53:56;;;;;;;3.88;1.40;;;;;;;;;;5092662;28;20097;-73
2023/05/02 12:56:23;;;;;;;2.85;1.30;;;;;;;;;;5076823;28;20044;-73
2023/05/02 12:58:49;;;;;;;5.20;2.05;;;;;;;;;;5095009;28;20055;-73
2023/05/02 13:01:16;;;;;;;2.00;1.58;;;;;;;;;;5067310;28;20498;-73
2023/05/02 13:03:42;;;;;;;2.65;1.52;;;;;;;;;;5086838;28;20074;-73
2023/05/02 13:06:09;;;;;;;2.72;1.50;;;;;;;;;;5096027;28;20056;-73
2023/05/02 13:08:35;;;;;;;2.08;1.85;;;;;;;;;;5072756;28;20114;-73
2023/05/02 13:11:02;;;;;;;2.80;1.48;;;;;;;;;;5080149;28;20190;-73
2023/05/02 13:13:28;;;;;;;4.25;1.90;;;;;;;;;;5081159;28;20068;-77
2023/05/02 13:15:55;;;;;;;7.13;1.73;;;;;;;;;;5093954;28;20056;-74
2023/05/02 13:18:21;;;;;;;3.63;1.65;;;;;;;;;;5076730;28;20051;-76
2023/05/02 13:20:47;;;;;;;2.58;1.60;;;;;;;;;;5090117;28;20127;-73
2023/05/02 13:23:15;;;;;;;3.65;1.92;;;;;;;;;;5089360;28;20123;-73
2023/05/02 13:25:41;;;;;;;5.20;1.70;;;;;;;;;;5083311;28;21527;-73
2023/05/02 13:28:07;;;;;;;6.97;1.70;;;;;;;;;;5090636;28;20048;-73
2023/05/02 13:30:33;;;;;;;5.75;1.95;;;;;;;;;;5088948;28;20044;-73
2023/05/02 13:33:00;;;;;;;6.18;2.25;;;;;;;;;;5094447;28;20039;-73
2023/05/02 13:35:26;;;;;;;4.40;1.80;;;;;;;;;;5087292;28;20444;-73
2023/05/02 13:37:52;;;;;;;4.60;1.75;;;;;;;;;;5091406;28;20044;-73
2023/05/02 13:40:18;;;;;;;2.45;1.60;;;;;;;;;;5072948;28;20626;-73
2023/05/02 13:42:44;;;;;;;2.35;1.55;;;;;;;;;;5073630;28;20052;-73
2023/05/02 13:45:11;;;;;;;2.80;1.40;;;;;;;;;;5090171;28;20087;-73
2023/05/02 13:47:40;;;;;;;3.75;1.58;;;;;;;;;;5087703;28;20547;-73
2023/05/02 13:50:06;;;;;;;2.70;1.98;;;;;;;;;;5093897;28;20093;-73
2023/05/02 13:52:32;;;;;;;4.30;1.85;;;;;;;;;;5086893;28;20067;-73
2023/05/02 13:54:58;;;;;;;2.80;1.85;;;;;;;;;;5088570;28;20044;-73
2023/05/02 13:57:24;;;;;;;3.17;1.60;;;;;;;;;;5093702;28;20036;-73
2023/05/02 13:59:50;;;;;;;5.22;2.00;;;;;;;;;;5085406;28;20040;-73
2023/05/02 14:02:17;;;;;;;3.58;1.88;;;;;;;;;;5072755;28;20117;-73
2023/05/02 14:04:43;;;;;;;3.50;1.92;;;;;;;;;;5086353;28;20047;-78
2023/05/02 14:07:10;;;;;;;3.65;1.90;;;;;;;;;;5093873;28;20060;-74
2023/05/02 14:09:36;;;;;;;4.18;1.90;;;;;;;;;;5082619;28;20048;-73
2023/05/02 14:12:02;;;;;;;4.50;1.67;;;;;;;;;;5091001;28;20036;-74
2023/05/02 14:14:28;;;;;;;4.55;1.92;;;;;;;;;;5091821;28;20079;-73
2023/05/02 14:16:54;;;;;;;5.50;1.77;;;;;;;;;;5074569;28;20044;-73
2023/05/02 14:19:20;;;;;;;4.22;1.67;;;;;;;;;;5083298;28;20072;-73
2023/05/02 14:21:46;;;;;;;4.53;1.90;;;;;;;;;;5054113;28;20094;-73
2023/05/02 14:24:14;;;;;;;4.32;2.03;;;;;;;;;;5085870;28;20040;-73
2023/05/02 14:26:40;;;;;;;5.15;1.92;;;;;;;;;;5093420;28;20052;-73
2023/05/02 14:29:07;;;;;;;3.17;1.92;;;;;;;;;;5085874;28;20052;-73
2023/05/02 14:31:33;;;;;;;4.10;1.75;;;;;;;;;;5079929;28;20115;-72
2023/05/02 14:34:01;;;;;;;5.60;1.80;;;;;;;;;;5093314;28;20056;-73
2023/05/02 14:36:27;;;;;;;4.60;2.00;;;;;;;;;;5093354;28;20488;-73
2023/05/02 14:38:53;;;;;;;5.30;2.15;;;;;;;;;;5081963;28;20037;-73
2023/05/02 14:41:20;;;;;;;5.65;1.98;;;;;;;;;;5093090;28;20570;-73
2023/05/02 14:43:46;;;;;;;3.42;1.95;;;;;;;;;;5093400;28;20086;-73